Tangail, Bangladesh
Current Conditions -  °F | °C
As of 10:20 PM on Monday 24 Nov 2014 (Local Time) from VGHS Reporting Station
Haze Haze  
Wind Chill: 70°   Ceiling: Unl
Heat Index: 70°   Visibility: 2.1mi
Dew Point: 59°   Wind: 0mph
Humidity: 68%   Direction: NA
Pressure: 29.91"   Gusts: NA
Location:  24.25°N, 89.92°E
Report Text: VGHS 241620Z 00000KT 3500 HZ NSC 21/15 Q1013 NOSIG
Loading
Personal Weather Stations






























Interactive Weather Map New forecast layout! Learn more

10-Day Weather Forecast

Advertisements
Track Severe Weather on mobile